sensor_id;sensor_type;location;lat;lon;timestamp;temperature;humidity
69324;DHT22;56470;47.350;8.718;2023-06-22T07:07:12;26.18;62.57
69324;DHT22;56470;47.350;8.718;2023-06-22T07:09:37;26.19;62.46
69324;DHT22;56470;47.350;8.718;2023-06-22T07:12:02;26.21;62.50
69324;DHT22;56470;47.350;8.718;2023-06-22T07:14:28;26.21;62.42
69324;DHT22;56470;47.350;8.718;2023-06-22T07:16:53;26.21;62.47
69324;DHT22;56470;47.350;8.718;2023-06-22T07:19:24;26.19;62.60
69324;DHT22;56470;47.350;8.718;2023-06-22T07:21:50;26.19;62.50
69324;DHT22;56470;47.350;8.718;2023-06-22T07:24:16;26.15;62.52
69324;DHT22;56470;47.350;8.718;2023-06-22T07:26:41;25.99;62.99
69324;DHT22;56470;47.350;8.718;2023-06-22T07:29:10;25.74;63.55
69324;DHT22;56470;47.350;8.718;2023-06-22T07:31:36;25.59;64.21
69324;DHT22;56470;47.350;8.718;2023-06-22T07:34:01;25.46;64.90
69324;DHT22;56470;47.350;8.718;2023-06-22T07:36:27;25.20;65.42
69324;DHT22;56470;47.350;8.718;2023-06-22T07:38:55;25.20;65.10
69324;DHT22;56470;47.350;8.718;2023-06-22T07:41:20;25.32;64.97
69324;DHT22;56470;47.350;8.718;2023-06-22T07:43:45;25.27;65.47
69324;DHT22;56470;47.350;8.718;2023-06-22T07:46:11;25.23;65.35
69324;DHT22;56470;47.350;8.718;2023-06-22T07:48:37;25.23;65.51
69324;DHT22;56470;47.350;8.718;2023-06-22T07:51:03;25.23;65.57
69324;DHT22;56470;47.350;8.718;2023-06-22T07:53:28;25.25;65.47
69324;DHT22;56470;47.350;8.718;2023-06-22T07:55:53;25.33;65.36
69324;DHT22;56470;47.350;8.718;2023-06-22T07:58:18;25.42;65.23
69324;DHT22;56470;47.350;8.718;2023-06-22T08:00:45;25.44;65.14
69324;DHT22;56470;47.350;8.718;2023-06-22T08:03:11;25.56;64.96
69324;DHT22;56470;47.350;8.718;2023-06-22T08:05:36;25.54;64.82
69324;DHT22;56470;47.350;8.718;2023-06-22T08:08:01;25.69;64.81
69324;DHT22;56470;47.350;8.718;2023-06-22T08:10:27;25.88;64.46
69324;DHT22;56470;47.350;8.718;2023-06-22T08:12:52;25.98;64.18
69324;DHT22;56470;47.350;8.718;2023-06-22T08:15:18;26.08;63.96
69324;DHT22;56470;47.350;8.718;2023-06-22T08:17:44;26.32;63.67
69324;DHT22;56470;47.350;8.718;2023-06-22T08:20:10;26.42;63.29
69324;DHT22;56470;47.350;8.718;2023-06-22T08:25:21;26.61;62.60
69324;DHT22;56470;47.350;8.718;2023-06-22T08:30:21;26.78;62.65
69324;DHT22;56470;47.350;8.718;2023-06-22T08:32:47;27.11;62.22
69324;DHT22;56470;47.350;8.718;2023-06-22T08:35:12;27.18;61.48
69324;DHT22;56470;47.350;8.718;2023-06-22T08:37:37;26.94;61.46
69324;DHT22;56470;47.350;8.718;2023-06-22T08:40:07;26.98;61.42
69324;DHT22;56470;47.350;8.718;2023-06-22T08:42:34;26.97;61.19
69324;DHT22;56470;47.350;8.718;2023-06-22T08:44:59;27.08;61.21
69324;DHT22;56470;47.350;8.718;2023-06-22T08:47:24;27.14;60.95
69324;DHT22;56470;47.350;8.718;2023-06-22T08:49:50;27.22;61.03
69324;DHT22;56470;47.350;8.718;2023-06-22T08:52:17;27.25;60.73
69324;DHT22;56470;47.350;8.718;2023-06-22T08:54:42;27.33;60.47
69324;DHT22;56470;47.350;8.718;2023-06-22T08:57:08;27.50;60.44
69324;DHT22;56470;47.350;8.718;2023-06-22T08:59:33;27.57;60.15
69324;DHT22;56470;47.350;8.718;2023-06-22T09:01:58;27.68;59.78
69324;DHT22;56470;47.350;8.718;2023-06-22T09:04:24;27.71;59.61
69324;DHT22;56470;47.350;8.718;2023-06-22T09:06:49;27.74;59.48
69324;DHT22;56470;47.350;8.718;2023-06-22T09:09:16;27.73;59.27
69324;DHT22;56470;47.350;8.718;2023-06-22T09:11:41;27.78;58.99
69324;DHT22;56470;47.350;8.718;2023-06-22T09:14:07;27.64;58.64
69324;DHT22;56470;47.350;8.718;2023-06-22T09:16:33;27.64;59.15
69324;DHT22;56470;47.350;8.718;2023-06-22T09:18:59;27.70;59.02
69324;DHT22;56470;47.350;8.718;2023-06-22T09:21:24;27.61;58.93
69324;DHT22;56470;47.350;8.718;2023-06-22T09:23:49;27.54;58.96
69324;DHT22;56470;47.350;8.718;2023-06-22T09:26:18;27.71;59.05
69324;DHT22;56470;47.350;8.718;2023-06-22T09:28:44;27.94;58.66
69324;DHT22;56470;47.350;8.718;2023-06-22T09:31:09;28.04;58.19
69324;DHT22;56470;47.350;8.718;2023-06-22T09:33:37;28.19;57.65
69324;DHT22;56470;47.350;8.718;2023-06-22T09:36:04;28.35;57.44
69324;DHT22;56470;47.350;8.718;2023-06-22T09:38:34;28.52;57.37
69324;DHT22;56470;47.350;8.718;2023-06-22T09:41:00;28.74;57.14
69324;DHT22;56470;47.350;8.718;2023-06-22T09:43:25;28.86;56.67
69324;DHT22;56470;47.350;8.718;2023-06-22T09:45:50;28.92;56.37
69324;DHT22;56470;47.350;8.718;2023-06-22T09:48:16;28.97;56.00
69324;DHT22;56470;47.350;8.718;2023-06-22T09:50:41;29.01;55.54
69324;DHT22;56470;47.350;8.718;2023-06-22T09:53:06;29.09;55.46
69324;DHT22;56470;47.350;8.718;2023-06-22T09:55:31;29.25;54.99
69324;DHT22;56470;47.350;8.718;2023-06-22T09:57:57;29.36;54.45
69324;DHT22;56470;47.350;8.718;2023-06-22T10:00:22;29.50;53.76
69324;DHT22;56470;47.350;8.718;2023-06-22T10:02:47;29.52;53.72
69324;DHT22;56470;47.350;8.718;2023-06-22T10:05:13;29.42;53.27
69324;DHT22;56470;47.350;8.718;2023-06-22T10:07:39;29.30;53.21
69324;DHT22;56470;47.350;8.718;2023-06-22T10:10:08;29.29;53.21
69324;DHT22;56470;47.350;8.718;2023-06-22T10:12:33;29.22;53.18
69324;DHT22;56470;47.350;8.718;2023-06-22T10:14:58;29.14;53.30
69324;DHT22;56470;47.350;8.718;2023-06-22T10:17:24;29.08;53.33
69324;DHT22;56470;47.350;8.718;2023-06-22T10:19:49;29.12;53.27
69324;DHT22;56470;47.350;8.718;2023-06-22T10:22:14;29.15;53.22
69324;DHT22;56470;47.350;8.718;2023-06-22T10:24:39;29.23;52.99
69324;DHT22;56470;47.350;8.718;2023-06-22T10:27:12;29.29;52.92
69324;DHT22;56470;47.350;8.718;2023-06-22T10:29:38;29.25;52.91
69324;DHT22;56470;47.350;8.718;2023-06-22T10:32:04;29.22;53.15
69324;DHT22;56470;47.350;8.718;2023-06-22T10:34:29;29.22;53.28
69324;DHT22;56470;47.350;8.718;2023-06-22T10:36:55;29.19;53.23
69324;DHT22;56470;47.350;8.718;2023-06-22T10:39:20;29.16;53.32
69324;DHT22;56470;47.350;8.718;2023-06-22T10:41:45;29.09;53.48
69324;DHT22;56470;47.350;8.718;2023-06-22T10:44:12;28.98;53.76
69324;DHT22;56470;47.350;8.718;2023-06-22T10:46:37;28.91;54.15
69324;DHT22;56470;47.350;8.718;2023-06-22T10:49:03;28.88;54.50
69324;DHT22;56470;47.350;8.718;2023-06-22T10:51:28;28.84;54.71
69324;DHT22;56470;47.350;8.718;2023-06-22T10:53:54;28.83;55.00
69324;DHT22;56470;47.350;8.718;2023-06-22T10:56:19;28.83;55.12
69324;DHT22;56470;47.350;8.718;2023-06-22T10:58:45;28.73;55.23
69324;DHT22;56470;47.350;8.718;2023-06-22T11:01:11;28.71;55.41
69324;DHT22;56470;47.350;8.718;2023-06-22T11:03:36;28.64;55.49
69324;DHT22;56470;47.350;8.718;2023-06-22T11:06:01;28.57;55.55
69324;DHT22;56470;47.350;8.718;2023-06-22T11:08:27;28.53;55.62
69324;DHT22;56470;47.350;8.718;2023-06-22T11:10:52;28.55;55.54
69324;DHT22;56470;47.350;8.718;2023-06-22T11:13:17;28.52;55.57
69324;DHT22;56470;47.350;8.718;2023-06-22T11:15:43;28.40;55.45
69324;DHT22;56470;47.350;8.718;2023-06-22T11:18:08;28.33;55.51
69324;DHT22;56470;47.350;8.718;2023-06-22T11:20:34;28.38;55.55
69324;DHT22;56470;47.350;8.718;2023-06-22T11:23:06;28.33;55.46
69324;DHT22;56470;47.350;8.718;2023-06-22T11:25:33;28.26;55.50
69324;DHT22;56470;47.350;8.718;2023-06-22T11:28:04;28.26;55.63
69324;DHT22;56470;47.350;8.718;2023-06-22T11:30:30;28.21;55.53
69324;DHT22;56470;47.350;8.718;2023-06-22T11:32:58;28.18;55.51
69324;DHT22;56470;47.350;8.718;2023-06-22T11:35:24;28.18;55.45
69324;DHT22;56470;47.350;8.718;2023-06-22T11:37:49;28.15;55.28
69324;DHT22;56470;47.350;8.718;2023-06-22T11:40:14;28.18;55.28
69324;DHT22;56470;47.350;8.718;2023-06-22T11:42:39;28.19;55.18
69324;DHT22;56470;47.350;8.718;2023-06-22T11:45:06;28.21;55.17
69324;DHT22;56470;47.350;8.718;2023-06-22T11:47:31;28.23;55.13
69324;DHT22;56470;47.350;8.718;2023-06-22T11:49:57;28.28;55.17
69324;DHT22;56470;47.350;8.718;2023-06-22T11:52:22;28.25;55.13
69324;DHT22;56470;47.350;8.718;2023-06-22T11:54:47;28.26;55.24
69324;DHT22;56470;47.350;8.718;2023-06-22T11:57:13;28.31;55.42
69324;DHT22;56470;47.350;8.718;2023-06-22T11:59:38;28.33;55.52
69324;DHT22;56470;47.350;8.718;2023-06-22T12:02:03;28.36;55.54
69324;DHT22;56470;47.350;8.718;2023-06-22T12:04:30;28.36;55.59
69324;DHT22;56470;47.350;8.718;2023-06-22T12:06:55;28.39;55.59
69324;DHT22;56470;47.350;8.718;2023-06-22T12:09:21;28.40;55.65
69324;DHT22;56470;47.350;8.718;2023-06-22T12:11:46;28.42;55.72
69324;DHT22;56470;47.350;8.718;2023-06-22T12:14:11;28.45;55.78
69324;DHT22;56470;47.350;8.718;2023-06-22T12:16:36;28.43;55.90
69324;DHT22;56470;47.350;8.718;2023-06-22T12:19:02;28.43;56.02
69324;DHT22;56470;47.350;8.718;2023-06-22T12:21:28;28.36;56.25
69324;DHT22;56470;47.350;8.718;2023-06-22T12:23:54;28.36;56.52
69324;DHT22;56470;47.350;8.718;2023-06-22T12:26:19;28.42;56.89
69324;DHT22;56470;47.350;8.718;2023-06-22T12:28:44;28.39;56.50
69324;DHT22;56470;47.350;8.718;2023-06-22T12:31:10;28.45;56.29
69324;DHT22;56470;47.350;8.718;2023-06-22T12:33:35;28.46;55.90
69324;DHT22;56470;47.350;8.718;2023-06-22T12:36:00;28.49;55.63
69324;DHT22;56470;47.350;8.718;2023-06-22T12:38:26;28.53;54.95
69324;DHT22;56470;47.350;8.718;2023-06-22T12:40:51;28.55;54.85
69324;DHT22;56470;47.350;8.718;2023-06-22T12:43:17;28.56;54.87
69324;DHT22;56470;47.350;8.718;2023-06-22T12:45:42;28.59;54.94
69324;DHT22;56470;47.350;8.718;2023-06-22T12:48:08;28.63;54.91
69324;DHT22;56470;47.350;8.718;2023-06-22T12:50:33;28.63;54.82
69324;DHT22;56470;47.350;8.718;2023-06-22T12:52:59;28.67;54.55
69324;DHT22;56470;47.350;8.718;2023-06-22T12:55:25;28.74;54.45
69324;DHT22;56470;47.350;8.718;2023-06-22T12:57:50;28.86;53.68
69324;DHT22;56470;47.350;8.718;2023-06-22T13:00:16;28.87;53.13
69324;DHT22;56470;47.350;8.718;2023-06-22T13:02:41;28.87;52.87
69324;DHT22;56470;47.350;8.718;2023-06-22T13:05:07;28.92;52.57
69324;DHT22;56470;47.350;8.718;2023-06-22T13:07:33;28.94;52.43
69324;DHT22;56470;47.350;8.718;2023-06-22T13:09:59;28.97;52.27
69324;DHT22;56470;47.350;8.718;2023-06-22T13:12:24;28.92;52.27
69324;DHT22;56470;47.350;8.718;2023-06-22T13:14:49;28.94;52.45
69324;DHT22;56470;47.350;8.718;2023-06-22T13:17:15;28.97;52.51
69324;DHT22;56470;47.350;8.718;2023-06-22T13:19:40;28.94;52.14
69324;DHT22;56470;47.350;8.718;2023-06-22T13:22:34;28.95;50.92
69324;DHT22;56470;47.350;8.718;2023-06-22T13:25:06;28.92;51.74
69324;DHT22;56470;47.350;8.718;2023-06-22T13:27:31;28.95;51.33
69324;DHT22;56470;47.350;8.718;2023-06-22T13:29:57;28.97;50.96
69324;DHT22;56470;47.350;8.718;2023-06-22T13:32:22;28.94;50.27
69324;DHT22;56470;47.350;8.718;2023-06-22T13:34:47;28.91;50.04
69324;DHT22;56470;47.350;8.718;2023-06-22T13:37:13;28.94;49.95
69324;DHT22;56470;47.350;8.718;2023-06-22T13:39:38;28.90;49.63
69324;DHT22;56470;47.350;8.718;2023-06-22T13:42:04;28.86;49.50
69324;DHT22;56470;47.350;8.718;2023-06-22T13:44:29;28.83;48.43
69324;DHT22;56470;47.350;8.718;2023-06-22T13:47:02;28.88;48.34
69324;DHT22;56470;47.350;8.718;2023-06-22T13:49:29;28.91;48.03
69324;DHT22;56470;47.350;8.718;2023-06-22T13:51:56;29.04;47.66
69324;DHT22;56470;47.350;8.718;2023-06-22T13:55:06;29.12;44.94
69324;DHT22;56470;47.350;8.718;2023-06-22T13:58:21;29.19;45.89
69324;DHT22;56470;47.350;8.718;2023-06-22T14:01:09;29.23;47.12
69324;DHT22;56470;47.350;8.718;2023-06-22T14:03:36;29.25;46.93
69324;DHT22;56470;47.350;8.718;2023-06-22T14:06:01;29.11;46.56
69324;DHT22;56470;47.350;8.718;2023-06-22T14:08:26;29.07;46.89
69324;DHT22;56470;47.350;8.718;2023-06-22T14:10:51;29.04;46.94
69324;DHT22;56470;47.350;8.718;2023-06-22T14:13:18;28.94;46.43
69324;DHT22;56470;47.350;8.718;2023-06-22T14:15:44;28.90;46.26
69324;DHT22;56470;47.350;8.718;2023-06-22T14:18:09;28.88;46.26
69324;DHT22;56470;47.350;8.718;2023-06-22T14:20:34;28.78;45.94
69324;DHT22;56470;47.350;8.718;2023-06-22T14:23:00;28.73;45.88
69324;DHT22;56470;47.350;8.718;2023-06-22T14:25:25;28.67;45.46
69324;DHT22;56470;47.350;8.718;2023-06-22T14:27:50;28.59;44.97
69324;DHT22;56470;47.350;8.718;2023-06-22T14:30:16;28.59;45.41
69324;DHT22;56470;47.350;8.718;2023-06-22T14:32:43;28.61;45.23
69324;DHT22;56470;47.350;8.718;2023-06-22T14:35:08;28.64;45.38
69324;DHT22;56470;47.350;8.718;2023-06-22T14:37:34;28.66;45.55
69324;DHT22;56470;47.350;8.718;2023-06-22T14:39:59;28.55;45.36
69324;DHT22;56470;47.350;8.718;2023-06-22T14:42:24;28.43;45.39
69324;DHT22;56470;47.350;8.718;2023-06-22T14:44:51;28.36;45.64
69324;DHT22;56470;47.350;8.718;2023-06-22T14:47:17;28.32;45.88
69324;DHT22;56470;47.350;8.718;2023-06-22T14:49:43;28.16;46.14
69324;DHT22;56470;47.350;8.718;2023-06-22T14:52:08;28.13;46.61
69324;DHT22;56470;47.350;8.718;2023-06-22T14:54:34;28.19;46.96
69324;DHT22;56470;47.350;8.718;2023-06-22T14:56:59;28.22;47.23
69324;DHT22;56470;47.350;8.718;2023-06-22T14:59:24;28.25;47.56
69324;DHT22;56470;47.350;8.718;2023-06-22T15:01:50;28.18;48.10
69324;DHT22;56470;47.350;8.718;2023-06-22T15:04:15;27.98;48.76
69324;DHT22;56470;47.350;8.718;2023-06-22T15:06:40;27.94;49.02
69324;DHT22;56470;47.350;8.718;2023-06-22T15:09:06;27.93;49.30
69324;DHT22;56470;47.350;8.718;2023-06-22T15:11:31;27.95;49.52
69324;DHT22;56470;47.350;8.718;2023-06-22T15:13:58;27.93;49.71
69324;DHT22;56470;47.350;8.718;2023-06-22T15:16:25;27.95;49.76
69324;DHT22;56470;47.350;8.718;2023-06-22T15:18:50;27.97;50.09
69324;DHT22;56470;47.350;8.718;2023-06-22T15:21:16;27.97;50.30
69324;DHT22;56470;47.350;8.718;2023-06-22T15:23:41;27.98;50.62
69324;DHT22;56470;47.350;8.718;2023-06-22T15:26:07;27.95;50.75
69324;DHT22;56470;47.350;8.718;2023-06-22T15:28:33;28.00;50.84
69324;DHT22;56470;47.350;8.718;2023-06-22T15:31:00;28.09;50.90
69324;DHT22;56470;47.350;8.718;2023-06-22T15:33:25;28.12;50.86
69324;DHT22;56470;47.350;8.718;2023-06-22T15:35:50;28.13;50.77
69324;DHT22;56470;47.350;8.718;2023-06-22T15:38:17;28.18;50.71
69324;DHT22;56470;47.350;8.718;2023-06-22T15:40:43;28.18;50.65
69324;DHT22;56470;47.350;8.718;2023-06-22T15:43:12;28.15;50.50
69324;DHT22;56470;47.350;8.718;2023-06-22T15:45:40;28.16;50.51
69324;DHT22;56470;47.350;8.718;2023-06-22T15:48:05;28.12;50.54
69324;DHT22;56470;47.350;8.718;2023-06-22T15:50:31;28.15;50.60
69324;DHT22;56470;47.350;8.718;2023-06-22T15:52:56;28.12;50.54
69324;DHT22;56470;47.350;8.718;2023-06-22T15:55:21;28.11;50.50
69324;DHT22;56470;47.350;8.718;2023-06-22T15:57:47;28.08;50.54
69324;DHT22;56470;47.350;8.718;2023-06-22T16:00:16;28.04;50.62
69324;DHT22;56470;47.350;8.718;2023-06-22T16:02:43;27.95;50.80
69324;DHT22;56470;47.350;8.718;2023-06-22T16:05:09;27.95;50.95
69324;DHT22;56470;47.350;8.718;2023-06-22T16:07:35;27.88;50.91
69324;DHT22;56470;47.350;8.718;2023-06-22T16:10:00;27.84;51.01
69324;DHT22;56470;47.350;8.718;2023-06-22T16:12:26;27.78;51.08
69324;DHT22;56470;47.350;8.718;2023-06-22T16:14:54;27.74;51.13
69324;DHT22;56470;47.350;8.718;2023-06-22T16:17:19;27.74;51.24
69324;DHT22;56470;47.350;8.718;2023-06-22T16:19:44;27.70;51.46
69324;DHT22;56470;47.350;8.718;2023-06-22T16:22:10;27.64;51.68
69324;DHT22;56470;47.350;8.718;2023-06-22T16:24:35;27.63;51.73
69324;DHT22;56470;47.350;8.718;2023-06-22T16:27:00;27.59;51.87
69324;DHT22;56470;47.350;8.718;2023-06-22T16:29:25;27.53;52.47
69324;DHT22;56470;47.350;8.718;2023-06-22T16:31:51;27.43;52.78
69324;DHT22;56470;47.350;8.718;2023-06-22T16:34:16;27.38;53.29
69324;DHT22;56470;47.350;8.718;2023-06-22T16:36:41;27.23;53.81
69324;DHT22;56470;47.350;8.718;2023-06-22T16:39:07;27.15;54.17
69324;DHT22;56470;47.350;8.718;2023-06-22T16:41:32;27.14;54.76
69324;DHT22;56470;47.350;8.718;2023-06-22T16:43:57;27.08;55.19
69324;DHT22;56470;47.350;8.718;2023-06-22T16:46:27;26.99;55.26
69324;DHT22;56470;47.350;8.718;2023-06-22T16:48:53;26.73;55.32
69324;DHT22;56470;47.350;8.718;2023-06-22T16:51:18;26.29;55.55
69324;DHT22;56470;47.350;8.718;2023-06-22T16:53:44;25.74;56.64
69324;DHT22;56470;47.350;8.718;2023-06-22T16:56:10;25.19;58.22
69324;DHT22;56470;47.350;8.718;2023-06-22T16:58:36;24.88;59.11
69324;DHT22;56470;47.350;8.718;2023-06-22T17:01:05;24.84;59.93
69324;DHT22;56470;47.350;8.718;2023-06-22T17:03:35;24.87;60.49
69324;DHT22;56470;47.350;8.718;2023-06-22T17:06:04;24.77;60.42
69324;DHT22;56470;47.350;8.718;2023-06-22T17:08:31;24.74;60.83
69324;DHT22;56470;47.350;8.718;2023-06-22T17:10:58;24.68;61.02
69324;DHT22;56470;47.350;8.718;2023-06-22T17:13:23;24.64;61.81
69324;DHT22;56470;47.350;8.718;2023-06-22T17:15:55;24.50;62.49
69324;DHT22;56470;47.350;8.718;2023-06-22T17:18:24;24.39;62.03
69324;DHT22;56470;47.350;8.718;2023-06-22T17:20:49;24.30;62.25
69324;DHT22;56470;47.350;8.718;2023-06-22T17:23:14;24.26;62.45
69324;DHT22;56470;47.350;8.718;2023-06-22T17:25:41;24.13;62.99
69324;DHT22;56470;47.350;8.718;2023-06-22T17:28:07;24.08;63.34
69324;DHT22;56470;47.350;8.718;2023-06-22T17:30:33;24.08;63.52
69324;DHT22;56470;47.350;8.718;2023-06-22T17:32:59;24.06;64.26
69324;DHT22;56470;47.350;8.718;2023-06-22T17:35:25;24.05;64.46
69324;DHT22;56470;47.350;8.718;2023-06-22T17:37:54;24.05;65.31
69324;DHT22;56470;47.350;8.718;2023-06-22T17:40:24;24.08;65.98
69324;DHT22;56470;47.350;8.718;2023-06-22T17:42:51;24.22;65.49
69324;DHT22;56470;47.350;8.718;2023-06-22T17:45:19;24.36;65.58
69324;DHT22;56470;47.350;8.718;2023-06-22T17:47:49;24.53;65.88
69324;DHT22;56470;47.350;8.718;2023-06-22T17:50:15;24.57;65.09
69324;DHT22;56470;47.350;8.718;2023-06-22T17:52:41;24.56;64.70
69324;DHT22;56470;47.350;8.718;2023-06-22T17:55:07;24.59;64.27
69324;DHT22;56470;47.350;8.718;2023-06-22T17:57:37;24.73;64.11
69324;DHT22;56470;47.350;8.718;2023-06-22T18:00:06;24.77;63.81
69324;DHT22;56470;47.350;8.718;2023-06-22T18:02:41;24.84;63.64
69324;DHT22;56470;47.350;8.718;2023-06-22T18:05:12;24.87;63.15
69324;DHT22;56470;47.350;8.718;2023-06-22T18:07:48;24.85;62.74
69324;DHT22;56470;47.350;8.718;2023-06-22T18:10:30;24.73;61.68
69324;DHT22;56470;47.350;8.718;2023-06-22T18:12:55;24.68;62.11
69324;DHT22;56470;47.350;8.718;2023-06-22T18:15:22;24.68;61.89
69324;DHT22;56470;47.350;8.718;2023-06-22T18:17:49;24.68;61.75
69324;DHT22;56470;47.350;8.718;2023-06-22T18:20:15;24.68;61.59
69324;DHT22;56470;47.350;8.718;2023-06-22T18:22:41;24.71;60.82
69324;DHT22;56470;47.350;8.718;2023-06-22T18:25:07;24.74;60.00
69324;DHT22;56470;47.350;8.718;2023-06-22T18:27:34;24.67;59.28
69324;DHT22;56470;47.350;8.718;2023-06-22T18:30:00;24.68;59.01
69324;DHT22;56470;47.350;8.718;2023-06-22T18:32:27;24.64;58.33
69324;DHT22;56470;47.350;8.718;2023-06-22T18:34:53;24.63;57.99
69324;DHT22;56470;47.350;8.718;2023-06-22T18:37:19;24.59;57.64
69324;DHT22;56470;47.350;8.718;2023-06-22T18:39:48;24.63;57.50
69324;DHT22;56470;47.350;8.718;2023-06-22T18:42:14;24.65;57.38
69324;DHT22;56470;47.350;8.718;2023-06-22T18:44:41;24.71;57.20
69324;DHT22;56470;47.350;8.718;2023-06-22T18:47:08;24.73;56.84
69324;DHT22;56470;47.350;8.718;2023-06-22T18:49:45;24.74;55.89
69324;DHT22;56470;47.350;8.718;2023-06-22T18:52:15;24.74;56.68
69324;DHT22;56470;47.350;8.718;2023-06-22T18:54:42;24.74;56.72
69324;DHT22;56470;47.350;8.718;2023-06-22T18:57:15;24.77;55.97
69324;DHT22;56470;47.350;8.718;2023-06-22T18:59:45;24.78;56.15
69324;DHT22;56470;47.350;8.718;2023-06-22T19:02:15;24.78;55.98
69324;DHT22;56470;47.350;8.718;2023-06-22T19:04:42;24.75;55.79
69324;DHT22;56470;47.350;8.718;2023-06-22T19:07:08;24.74;55.71
69324;DHT22;56470;47.350;8.718;2023-06-22T19:09:34;24.67;55.84
69324;DHT22;56470;47.350;8.718;2023-06-22T19:12:20;24.71;54.82
69324;DHT22;56470;47.350;8.718;2023-06-22T19:15:03;24.81;54.45
69324;DHT22;56470;47.350;8.718;2023-06-22T19:17:32;24.85;55.40
69324;DHT22;56470;47.350;8.718;2023-06-22T19:20:01;24.84;55.18
69324;DHT22;56470;47.350;8.718;2023-06-22T19:22:57;24.81;54.18
69324;DHT22;56470;47.350;8.718;2023-06-22T19:25:28;24.74;54.84
69324;DHT22;56470;47.350;8.718;2023-06-22T19:27:55;24.71;55.03
69324;DHT22;56470;47.350;8.718;2023-06-22T19:30:22;24.70;55.21
69324;DHT22;56470;47.350;8.718;2023-06-22T19:44:18;24.84;54.38
69324;DHT22;56470;47.350;8.718;2023-06-22T19:47:27;24.87;54.01
69324;DHT22;56470;47.350;8.718;2023-06-22T19:50:38;24.95;54.54
69324;DHT22;56470;47.350;8.718;2023-06-22T19:53:09;24.88;54.17
69324;DHT22;56470;47.350;8.718;2023-06-22T19:56:01;24.81;53.31
69324;DHT22;56470;47.350;8.718;2023-06-22T19:58:26;24.82;54.38
69324;DHT22;56470;47.350;8.718;2023-06-22T20:00:58;24.82;54.14
69324;DHT22;56470;47.350;8.718;2023-06-22T20:03:42;24.77;53.72
69324;DHT22;56470;47.350;8.718;2023-06-22T20:06:15;24.77;54.22
69324;DHT22;56470;47.350;8.718;2023-06-22T20:08:49;24.74;54.01
69324;DHT22;56470;47.350;8.718;2023-06-22T20:11:23;24.77;54.00
69324;DHT22;56470;47.350;8.718;2023-06-22T20:13:51;24.80;54.28
69324;DHT22;56470;47.350;8.718;2023-06-22T20:16:17;24.84;54.21
69324;DHT22;56470;47.350;8.718;2023-06-22T20:18:43;24.85;54.26
69324;DHT22;56470;47.350;8.718;2023-06-22T20:21:12;24.90;54.25
69324;DHT22;56470;47.350;8.718;2023-06-22T20:23:40;24.88;54.01
69324;DHT22;56470;47.350;8.718;2023-06-22T20:26:12;24.84;54.11
69324;DHT22;56470;47.350;8.718;2023-06-22T20:28:44;24.82;54.11
69324;DHT22;56470;47.350;8.718;2023-06-22T20:31:18;24.82;54.26
69324;DHT22;56470;47.350;8.718;2023-06-22T20:34:03;24.81;54.30
69324;DHT22;56470;47.350;8.718;2023-06-22T20:36:31;24.71;54.51
69324;DHT22;56470;47.350;8.718;2023-06-22T20:38:57;24.71;54.88
69324;DHT22;56470;47.350;8.718;2023-06-22T20:41:22;24.73;55.02
69324;DHT22;56470;47.350;8.718;2023-06-22T20:43:54;24.71;55.07
69324;DHT22;56470;47.350;8.718;2023-06-22T20:46:19;24.71;55.39
69324;DHT22;56470;47.350;8.718;2023-06-22T20:48:44;24.73;55.54
69324;DHT22;56470;47.350;8.718;2023-06-22T20:51:11;24.73;55.58
69324;DHT22;56470;47.350;8.718;2023-06-22T20:53:36;24.68;55.54
69324;DHT22;56470;47.350;8.718;2023-06-22T20:56:01;24.63;55.42
69324;DHT22;56470;47.350;8.718;2023-06-22T20:58:29;24.53;55.63
69324;DHT22;56470;47.350;8.718;2023-06-22T21:00:54;24.52;55.77
69324;DHT22;56470;47.350;8.718;2023-06-22T21:03:25;24.47;55.88
69324;DHT22;56470;47.350;8.718;2023-06-22T21:05:50;24.43;55.87
69324;DHT22;56470;47.350;8.718;2023-06-22T21:08:16;24.39;56.06
69324;DHT22;56470;47.350;8.718;2023-06-22T21:10:41;24.39;56.08
69324;DHT22;56470;47.350;8.718;2023-06-22T21:13:07;24.36;56.27
69324;DHT22;56470;47.350;8.718;2023-06-22T21:15:33;24.30;56.68
69324;DHT22;56470;47.350;8.718;2023-06-22T21:17:58;24.23;56.83
69324;DHT22;56470;47.350;8.718;2023-06-22T21:20:23;24.22;56.90
69324;DHT22;56470;47.350;8.718;2023-06-22T21:22:49;24.20;57.06
69324;DHT22;56470;47.350;8.718;2023-06-22T21:25:14;24.16;57.17
69324;DHT22;56470;47.350;8.718;2023-06-22T21:27:43;24.09;57.32
69324;DHT22;56470;47.350;8.718;2023-06-22T21:30:12;24.08;57.42
69324;DHT22;56470;47.350;8.718;2023-06-22T21:32:39;24.08;57.49
69324;DHT22;56470;47.350;8.718;2023-06-22T21:35:05;24.05;57.40
69324;DHT22;56470;47.350;8.718;2023-06-22T21:37:31;23.94;57.43
69324;DHT22;56470;47.350;8.718;2023-06-22T21:39:56;23.85;57.62
69324;DHT22;56470;47.350;8.718;2023-06-22T21:42:22;23.78;57.89
69324;DHT22;56470;47.350;8.718;2023-06-22T21:44:51;23.73;58.06
69324;DHT22;56470;47.350;8.718;2023-06-22T21:47:17;23.63;58.24
69324;DHT22;56470;47.350;8.718;2023-06-22T21:49:42;23.64;58.37
69324;DHT22;56470;47.350;8.718;2023-06-22T21:52:08;23.60;58.32
69324;DHT22;56470;47.350;8.718;2023-06-22T21:54:33;23.51;58.39
69324;DHT22;56470;47.350;8.718;2023-06-22T21:56:59;23.38;58.50
69324;DHT22;56470;47.350;8.718;2023-06-22T21:59:24;23.27;58.90
69324;DHT22;56470;47.350;8.718;2023-06-22T22:01:50;23.22;59.02
69324;DHT22;56470;47.350;8.718;2023-06-22T22:04:16;23.16;59.29
69324;DHT22;56470;47.350;8.718;2023-06-22T22:06:41;23.08;59.33
69324;DHT22;56470;47.350;8.718;2023-06-22T22:09:07;23.02;59.77
69324;DHT22;56470;47.350;8.718;2023-06-22T22:11:33;23.06;59.81
69324;DHT22;56470;47.350;8.718;2023-06-22T22:13:58;23.08;59.86
69324;DHT22;56470;47.350;8.718;2023-06-22T22:16:23;23.04;59.82
69324;DHT22;56470;47.350;8.718;2023-06-22T22:18:49;22.99;60.01
69324;DHT22;56470;47.350;8.718;2023-06-22T22:21:14;22.95;60.16
69324;DHT22;56470;47.350;8.718;2023-06-22T22:23:40;22.95;60.54
69324;DHT22;56470;47.350;8.718;2023-06-22T22:26:06;23.05;60.72
69324;DHT22;56470;47.350;8.718;2023-06-22T22:28:31;23.08;60.79
69324;DHT22;56470;47.350;8.718;2023-06-22T22:30:57;23.08;60.75
69324;DHT22;56470;47.350;8.718;2023-06-22T22:33:22;23.06;60.61
69324;DHT22;56470;47.350;8.718;2023-06-22T22:35:48;22.91;60.62
69324;DHT22;56470;47.350;8.718;2023-06-22T22:38:13;22.79;60.94
69324;DHT22;56470;47.350;8.718;2023-06-22T22:40:38;22.64;61.33
69324;DHT22;56470;47.350;8.718;2023-06-22T22:43:04;22.47;61.72
69324;DHT22;56470;47.350;8.718;2023-06-22T22:45:29;22.39;61.93
69324;DHT22;56470;47.350;8.718;2023-06-22T22:47:55;22.32;62.11
69324;DHT22;56470;47.350;8.718;2023-06-22T22:50:20;22.13;62.44
69324;DHT22;56470;47.350;8.718;2023-06-22T22:52:47;21.95;63.00